COMPANY RECORD · MIAMI-DADE COUNTY, FL
Amp Group Of Florida LLC — permit history in Miami-Dade County, FL
Amp Group Of Florida LLC appears on 51 Miami-Dade County permit records from 2024 through 2026, all of them electrical.
Permit categories
| Category | Permits | Share |
|---|---|---|
| Electrical | 51 | 100% |
Activity by year
| Year | Permits issued |
|---|---|
| 2024 | 10 |
| 2025 | 31 |
| 2026 | 10 |
Busiest year on record: 2025, with 31 permits. One project can account for several filings, so read this as filing activity rather than workload.
Where they worked
| Address in source | Most recent permit |
|---|---|
| 9525 SW 158 AVE | 2026-06-17 |
| 9455 SW 158 AVE | 2026-06-17 |
| 9587 SW 158 AVE | 2026-06-09 |
| 9529 SW 158 AVE | 2026-06-05 |
| 9595 SW 158 AVE | 2026-04-06 |
| 8301 NW 53 ST | 2026-02-27 |
| 2930 SW 69 CT | 2025-12-04 |
| 2901 SW 69 CT | 2025-12-02 |
| 2976 SW 69 CT | 2025-09-16 |
| 2970 SW 69 CT | 2025-05-29 |
| 2950 SW 69 CT | 2025-05-29 |
| 2910 SW 69 CT | 2025-05-29 |
| 2811 SW 70 AVE | 2025-05-06 |
| 2913 SW 71 AVE | 2025-01-22 |
14 distinct addresses on record. Declared value on record runs from $128 to $16,205,092, median $1,612,894. Addresses appear as the authority published them. A permit is a filing at an address, not a completed job there.
Permits on record
51 permits; open the 50 most recent
| Permit | Issued | Category | Address in source | Scope as filed | Declared value |
|---|---|---|---|---|---|
| 2026052820 | 2026-06-17 | Electrical | 9525 SW 158 AVE | TEMP FOR TEST | $1,612,894 |
| 2026052965 | 2026-06-17 | Electrical | 9455 SW 158 AVE | TEMP FOR TESTYPE 1 | $11,790,000 |
| 2026051056 | 2026-06-09 | Electrical | 9587 SW 158 AVE | LIGHT POLES | $128 |
| 2026050403 | 2026-06-05 | Electrical | 9525 SW 158 AVE | LIGHT POSTS | $1,612,894 |
| 2026050404 | 2026-06-05 | Electrical | 9529 SW 158 AVE | LANDSCAPE LIGHTS | $128 |
| 2026043891 | 2026-05-06 | Electrical | 9529 SW 158 AVE | SEV SERVICE | $128 |
| 2026043602 | 2026-05-05 | Electrical | 9587 SW 158 AVE | NEV SERVICE | $128 |
| 2026037080 | 2026-04-06 | Electrical | 9595 SW 158 AVE | NEW GRILLING STATIO | $5,000 |
| 2026032450 | 2026-03-16 | Electrical | 9525 SW 158 AVE | SWIMMING POOL | $40,000 |
| 2026029006 | 2026-02-27 | Electrical | 8301 NW 53 ST | FA | $1,039,659 |
| 2026013282 | 2025-12-04 | Electrical | 2930 SW 69 CT | FIRE ALARM SYSTEM | $9,155,122 |
| 2026012686 | 2025-12-02 | Electrical | 2901 SW 69 CT | CLUBHOUSE ELEC | $3,408 |
| 2026010542 | 2025-11-19 | Electrical | 9525 SW 158 AVE | NEW CLUBHOUSE | $1,612,894 |
| 2025074045 | 2025-09-24 | Electrical | 9595 SW 158 AVE | NEW BLDG TYPE II | $14,886,300 |
| 2025074044 | 2025-09-24 | Electrical | 9525 SW 158 AVE | NEW CLUBHOUSE | $1,612,894 |
| 2025072335 | 2025-09-16 | Electrical | 2976 SW 69 CT | TEMP FOR TEST////// | $129,985 |
| 2025071913 | 2025-09-15 | Electrical | 9525 SW 158 AVE | NEW CLUBHOUSE | $1,612,894 |
| 2025067920 | 2025-08-26 | Electrical | 9595 SW 158 AVE | NEW BLDG TYPE II | $14,886,300 |
| 2025067501 | 2025-08-25 | Electrical | 9455 SW 158 AVE | NW BUILDING TYPE 1 | $11,790,000 |
| 2025060709 | 2025-07-25 | Electrical | 9455 SW 158 AVE | NW BUILDING TYPE 1 | $11,790,000 |
| 2025060415 | 2025-07-24 | Electrical | 9525 SW 158 AVE | NEW CLUBHOUSE | $1,612,894 |
| 2025060416 | 2025-07-24 | Electrical | 9595 SW 158 AVE | NEW BLDG TYPE II | $14,886,300 |
| 2025060108 | 2025-07-23 | Electrical | 9455 SW 158 AVE | FIRE ALALRM | $11,790,000 |
| 2025056447 | 2025-07-08 | Electrical | 9595 SW 158 AVE | ELEC. AS PER PLANS | $14,886,300 |
| 2025056024 | 2025-07-03 | Electrical | 9525 SW 158 AVE | NEW CLUBHOUSE ELEC | $1,612,894 |
| 2025054022 | 2025-06-25 | Electrical | 9455 SW 158 AVE | ELECTRICAL TYPE 1 | $11,790,000 |
| 2025048799 | 2025-06-02 | Electrical | 9529 SW 158 AVE | SEV SERVICE | $128 |
| 2025048800 | 2025-06-02 | Electrical | 9587 SW 158 AVE | NEV SERVICE | $128 |
| 2025047988 | 2025-05-29 | Electrical | 2970 SW 69 CT | TEMP FOR TEST////// | $16,205,092 |
| 2025047989 | 2025-05-29 | Electrical | 2930 SW 69 CT | TEMP FOR TEST | $9,155,122 |
| 2025047990 | 2025-05-29 | Electrical | 2950 SW 69 CT | BLDG B(2)/ #3000 | $15,310,245 |
| 2025047991 | 2025-05-29 | Electrical | 2910 SW 69 CT | BLDG B(1)/ #1000 | $15,310,245 |
| 2025042962 | 2025-05-06 | Electrical | 2811 SW 70 AVE | TEMP FOR TEST | $565,000 |
| 2025040104 | 2025-04-23 | Electrical | 2930 SW 69 CT | BLDG A / 4000 | $9,155,122 |
| 2025040103 | 2025-04-23 | Electrical | 2950 SW 69 CT | BLDG B(2)/ #3000 | $15,310,245 |
| 2025040102 | 2025-04-23 | Electrical | 2970 SW 69 CT | BLDG C/#2000+SITEWO | $16,205,092 |
| 2025040101 | 2025-04-23 | Electrical | 2910 SW 69 CT | BLDG B(1)/ #1000 | $15,310,245 |
| 2025040100 | 2025-04-23 | Electrical | 2901 SW 69 CT | CLUBHOUSE | $3,408 |
| 2025027089 | 2025-02-25 | Electrical | 2811 SW 70 AVE | MONUMENT SIGN | $8,000 |
| 2025027090 | 2025-02-25 | Electrical | 2901 SW 69 CT | REMOTE BBQ GRILL ST | $8,000 |
| 2025020231 | 2025-01-22 | Electrical | 2913 SW 71 AVE | POWER FOR SIGN#1 | $8,000 |
| 2025014749 | 2024-12-16 | Electrical | 2901 SW 69 CT | LOW VOLT TELEPHONE | $3,408 |
| 2025014748 | 2024-12-16 | Electrical | 2950 SW 69 CT | LOW VOLTAGE TELPH | $15,310,245 |
| 2025014747 | 2024-12-16 | Electrical | 2910 SW 69 CT | BLDG B(1)/ #1000 | $15,310,245 |
| 2025014759 | 2024-12-16 | Electrical | 2930 SW 69 CT | LOW VOLT TELEPHONE | $9,155,122 |
| 2025014760 | 2024-12-16 | Electrical | 2970 SW 69 CT | ELEC. AS PER PLANSO | $16,205,092 |
| 2025014761 | 2024-12-16 | Electrical | 2901 SW 69 CT | LOW VOLTAGE | $271,352 |
| 2025011274 | 2024-11-26 | Electrical | 2910 SW 69 CT | FIRE ALARM SYSTEM | $15,310,245 |
| 2025010828 | 2024-11-22 | Electrical | 2970 SW 69 CT | FIRE ALARM SYSTEMWO | $16,205,092 |
| 2024075060 | 2024-09-23 | Electrical | 2950 SW 69 CT | BLDG B(2)/ #3000 | $15,310,245 |
Fields appear as the issuing authority published them, including spelling and blanks. Scope text is the applicant's description of intended work, not an inspection finding.
Source and limits
Public Miami-Dade County permit records through 2026, counted by distinct permit number. This is a historical filing record: it cannot show current backlog, pricing, crew availability, licensing or insurance, and a quiet period may only mean work was filed elsewhere. Confirm anything commercial with the company and with the issuing authority before acting. How we build these records, and what we withhold →
